Time;durP1;ratioP1;P1;durP2;ratioP2;P2;SDS_P1;SDS_P2;PMS_P1;PMS_P2;Temp;Humidity;BMP_temperature;BMP_pressure;BME280_temperature;BME280_humidity;BME280_pressure;Samples;Min_cycle;Max_cycle;Signal;HPM_P1;HPM_P2
2022/07/15 00:01:08;;;;;;;2.80;1.58;;;;;;;27.55;30.75;99377.81;7738815;32;40028;-76
2022/07/15 00:05:24;;;;;;;3.15;1.45;;;;;;;27.23;32.07;99394.50;7728979;32;38824;-76
2022/07/15 00:14:15;;;;;;;2.95;1.60;;;;;;;27.52;32.67;99398.19;7715885;32;39987;-75
2022/07/15 00:18:31;;;;;;;2.12;1.30;;;;;;;27.69;32.08;99391.84;7739078;32;40816;-75
2022/07/15 00:22:47;;;;;;;2.92;1.48;;;;;;;27.70;31.93;99404.66;7738806;32;38619;-76
2022/07/15 00:27:04;;;;;;;5.40;1.90;;;;;;;27.38;32.25;99386.97;7738844;32;38108;-76
2022/07/15 00:31:20;;;;;;;1.90;1.60;;;;;;;27.49;32.68;99348.59;7738991;32;39825;-77
2022/07/15 00:35:37;;;;;;;4.60;2.00;;;;;;;27.32;33.12;99350.16;7738971;32;39932;-75
2022/07/15 00:39:53;;;;;;;2.55;1.70;;;;;;;27.52;33.00;99345.00;7738724;32;37718;-76
2022/07/15 00:44:10;;;;;;;3.12;1.70;;;;;;;27.60;33.03;99326.25;7736922;32;36819;-76
2022/07/15 00:48:26;;;;;;;2.10;1.48;;;;;;;27.59;33.30;99341.44;7712166;32;39314;-76
2022/07/15 00:52:48;;;;;;;6.22;2.30;;;;;;;27.60;32.97;99354.25;7710669;32;40715;-76
2022/07/15 00:57:05;;;;;;;5.70;2.50;;;;;;;27.67;32.74;99360.63;7719514;32;38706;-76
2022/07/15 01:01:22;;;;;;;4.70;2.62;;;;;;;27.63;32.77;99367.41;7738558;32;38179;-77
2022/07/15 01:05:38;;;;;;;3.72;1.70;;;;;;;27.24;33.57;99402.50;7738509;32;39416;-76
2022/07/15 01:09:54;;;;;;;5.65;1.90;;;;;;;27.25;34.26;99422.88;7738048;32;40829;-76
2022/07/15 01:14:10;;;;;;;5.53;1.83;;;;;;;27.00;34.75;99454.34;7738392;32;37969;-75
2022/07/15 01:18:26;;;;;;;2.28;1.65;;;;;;;26.86;35.40;99462.66;7738432;32;37081;-76
2022/07/15 01:22:42;;;;;;;4.60;1.95;;;;;;;26.57;36.42;99473.59;7738305;32;39460;-75
2022/07/15 01:26:59;;;;;;;4.82;1.70;;;;;;;26.42;36.70;99478.28;7731699;32;40771;-75
2022/07/15 01:31:15;;;;;;;3.15;1.62;;;;;;;26.40;36.82;99487.03;7711504;32;38001;-76
2022/07/15 01:35:32;;;;;;;6.80;1.55;;;;;;;26.24;37.48;99467.75;7711645;32;36745;-76
2022/07/15 01:39:48;;;;;;;5.55;1.55;;;;;;;26.09;37.31;99454.06;7711498;32;38978;-77
2022/07/15 01:44:04;;;;;;;3.58;1.62;;;;;;;26.19;36.79;99454.13;7711133;32;39580;-76
2022/07/15 01:52:54;;;;;;;0.85;0.80;;;;;;;26.04;36.23;99432.84;7711244;32;37354;-76
2022/07/15 01:57:11;;;;;;;1.27;1.00;;;;;;;26.38;34.48;99439.13;7711142;32;39587;-76
2022/07/15 02:01:27;;;;;;;2.12;1.00;;;;;;;26.39;34.14;99448.34;7707594;32;39862;-74
2022/07/15 02:05:43;;;;;;;2.90;0.90;;;;;;;26.47;33.45;99440.78;7707602;32;37994;-76
2022/07/15 02:09:59;;;;;;;1.00;1.00;;;;;;;26.57;33.21;99426.88;7707525;32;37724;-75
2022/07/15 02:14:15;;;;;;;1.58;0.85;;;;;;;26.44;32.76;99425.62;7708916;32;39406;-75
2022/07/15 02:18:31;;;;;;;1.35;0.82;;;;;;;26.44;32.67;99442.38;7710851;32;40859;-76
2022/07/15 02:22:47;;;;;;;2.17;0.77;;;;;;;26.41;32.60;99479.47;7710697;32;36146;-76
2022/07/15 02:27:03;;;;;;;1.55;0.93;;;;;;;26.22;32.53;99492.50;7710396;32;37697;-76
2022/07/15 02:31:20;;;;;;;3.10;1.00;;;;;;;26.38;32.00;99505.41;7710236;32;39056;-76
2022/07/15 02:35:37;;;;;;;2.67;0.90;;;;;;;26.41;32.50;99515.81;7710444;32;39940;-75
2022/07/15 02:39:53;;;;;;;0.98;0.93;;;;;;;26.15;32.78;99530.75;7735035;32;38072;-75
2022/07/15 02:44:09;;;;;;;2.03;0.98;;;;;;;25.76;34.61;99526.28;7736863;32;37766;-76
2022/07/15 02:48:25;;;;;;;2.90;0.90;;;;;;;26.01;34.90;99517.44;7736865;32;40073;-76
2022/07/15 02:52:42;;;;;;;1.40;1.00;;;;;;;25.83;35.89;99509.59;7736731;32;39941;-76
2022/07/15 02:56:58;;;;;;;2.92;1.10;;;;;;;25.67;36.61;99517.41;7748096;32;38396;-77
2022/07/15 03:01:14;;;;;;;1.12;0.90;;;;;;;25.71;36.60;99521.03;7736574;32;36715;-76
2022/07/15 03:05:31;;;;;;;1.20;1.10;;;;;;;25.69;36.92;99526.19;7747956;32;40198;-76
2022/07/15 03:09:47;;;;;;;1.30;1.20;;;;;;;25.54;37.34;99527.22;7712889;32;40092;-76
2022/07/15 03:14:03;;;;;;;4.53;1.58;;;;;;;25.44;37.36;99514.72;7709203;32;38661;-76
2022/07/15 03:18:19;;;;;;;1.60;1.00;;;;;;;25.28;37.81;99526.06;7709368;32;37266;-75
2022/07/15 03:22:35;;;;;;;3.75;1.40;;;;;;;25.34;37.70;99516.22;7709589;32;37411;-76
2022/07/15 03:26:51;;;;;;;3.65;1.30;;;;;;;25.40;37.65;99536.19;7708936;32;40789;-76
2022/07/15 03:31:08;;;;;;;1.37;1.10;;;;;;;25.28;37.75;99528.87;7709130;32;38823;-76
2022/07/15 03:35:24;;;;;;;1.55;1.25;;;;;;;25.08;37.95;99514.22;7722555;32;37148;-75
2022/07/15 03:39:41;;;;;;;3.25;1.37;;;;;;;24.74;38.73;99516.91;7739615;32;39295;-76
2022/07/15 03:43:57;;;;;;;1.00;1.00;;;;;;;24.46;39.57;99501.31;7739438;32;40716;-76
2022/07/15 03:48:13;;;;;;;2.12;1.10;;;;;;;24.62;39.32;99503.19;7739400;32;38598;-75
2022/07/15 03:52:29;;;;;;;1.35;1.20;;;;;;;24.19;40.57;99503.22;7739396;32;37768;-76
2022/07/15 03:56:47;;;;;;;1.80;1.25;;;;;;;23.77;42.35;99520.72;7739385;32;39428;-76
2022/07/15 04:01:04;;;;;;;0.90;0.90;;;;;;;23.79;42.94;99521.94;7739320;32;38988;-76
2022/07/15 04:05:20;;;;;;;1.58;1.30;;;;;;;23.65;43.81;99540.34;7731040;32;37664;-76
2022/07/15 04:09:37;;;;;;;2.15;1.30;;;;;;;23.04;46.05;99567.59;7712566;32;37079;-75
2022/07/15 04:13:53;;;;;;;4.22;1.20;;;;;;;23.00;47.37;99563.94;7712322;32;40106;-76
2022/07/15 04:18:09;;;;;;;1.67;1.20;;;;;;;23.20;46.28;99576.75;7712178;32;39853;-76
2022/07/15 04:22:25;;;;;;;2.67;1.40;;;;;;;22.78;46.07;99543.94;7712069;32;37837;-75
2022/07/15 04:26:41;;;;;;;4.28;1.35;;;;;;;22.83;46.29;99579.00;7711990;32;37855;-76
2022/07/15 04:30:57;;;;;;;2.95;1.60;;;;;;;22.81;46.65;99582.13;7712263;32;40011;-76
2022/07/15 04:35:13;;;;;;;3.37;1.58;;;;;;;22.02;48.90;99602.25;7722614;32;39963;-75
2022/07/15 04:39:29;;;;;;;3.78;1.50;;;;;;;21.34;52.22;99601.03;7738579;32;37872;-76
2022/07/15 04:43:45;;;;;;;4.97;2.08;;;;;;;21.54;51.88;99649.22;7737734;32;37996;-77
2022/07/15 04:48:02;;;;;;;2.78;1.83;;;;;;;21.22;53.78;99670.34;7738851;32;40731;-76
2022/07/15 04:52:18;;;;;;;2.30;1.80;;;;;;;21.09;56.64;99652.91;7738741;32;39767;-75
2022/07/15 04:56:34;;;;;;;2.83;1.73;;;;;;;20.90;57.67;99628.53;7733522;32;38792;-76
2022/07/15 05:00:50;;;;;;;2.35;1.70;;;;;;;20.82;57.39;99621.16;7730585;32;36711;-76
2022/07/15 05:05:07;;;;;;;2.80;1.90;;;;;;;20.90;57.17;99631.28;7749927;32;39269;-75
2022/07/15 05:09:23;;;;;;;3.47;1.90;;;;;;;20.45;59.33;99627.41;7749866;32;40717;-76
2022/07/15 05:13:39;;;;;;;3.25;2.00;;;;;;;20.43;61.18;99670.41;7737849;32;39231;-77
2022/07/15 05:17:55;;;;;;;3.10;1.75;;;;;;;20.26;62.48;99652.84;7738147;32;37031;-77
2022/07/15 05:22:11;;;;;;;5.20;2.03;;;;;;;20.38;62.96;99659.56;7737963;32;39424;-76
2022/07/15 05:26:27;;;;;;;5.50;2.10;;;;;;;20.36;63.11;99659.09;7729411;32;40752;-77
2022/07/15 05:30:50;;;;;;;;;;;;;;;20.52;62.85;99637.91;7683390;32;38037;-77
2022/07/15 05:35:07;;;;;;;4.22;1.77;;;;;;;20.83;62.13;99625.53;7662686;32;36932;-75
2022/07/15 05:39:23;;;;;;;4.15;2.30;;;;;;;20.87;61.14;99601.53;7658394;32;40119;-77
2022/07/15 05:43:39;;;;;;;3.08;2.05;;;;;;;21.11;60.95;99642.28;7658344;32;39896;-77
2022/07/15 05:47:55;;;;;;;3.40;1.98;;;;;;;20.97;60.86;99639.03;7682198;32;38471;-77
2022/07/15 05:52:12;;;;;;;2.90;1.87;;;;;;;20.70;61.99;99638.56;7678444;32;37675;-77
2022/07/15 05:56:28;;;;;;;2.58;1.85;;;;;;;21.00;61.48;99658.56;7666794;32;39025;-77
2022/07/15 06:00:44;;;;;;;2.70;2.03;;;;;;;21.06;60.58;99683.28;7660165;32;40139;-78
2022/07/15 06:05:00;;;;;;;5.28;2.28;;;;;;;20.48;62.08;99658.31;7656608;32;38006;-79
2022/07/15 06:09:16;;;;;;;3.40;2.30;;;;;;;20.03;63.31;99723.53;7657864;32;36878;-78
2022/07/15 06:13:32;;;;;;;3.42;2.10;;;;;;;20.26;63.60;99735.88;7657866;32;40021;-77
2022/07/15 06:17:49;;;;;;;3.28;2.00;;;;;;;20.13;64.12;99736.13;7657762;32;40698;-78
2022/07/15 06:22:06;;;;;;;3.95;2.10;;;;;;;20.49;63.01;99720.84;7667073;32;37915;-78
2022/07/15 06:26:22;;;;;;;6.55;2.47;;;;;;;20.71;62.14;99705.84;7683409;32;37139;-77
2022/07/15 06:30:38;;;;;;;3.28;2.30;;;;;;;20.49;63.37;99715.31;7723091;32;39407;-78
2022/07/15 06:34:54;;;;;;;4.32;2.40;;;;;;;20.46;63.04;99722.34;7736455;32;40904;-78
2022/07/15 06:39:11;;;;;;;8.60;2.33;;;;;;;20.85;62.03;99717.41;7736172;32;38030;-79
2022/07/15 06:43:27;;;;;;;4.32;2.20;;;;;;;20.78;62.04;99700.53;7735540;32;38341;-77
2022/07/15 06:47:43;;;;;;;3.20;2.33;;;;;;;20.81;61.86;99713.72;7736666;32;39516;-77
2022/07/15 06:51:59;;;;;;;2.53;1.98;;;;;;;20.81;61.96;99708.97;7735153;32;41203;-78
2022/07/15 06:56:15;;;;;;;4.85;2.37;;;;;;;20.95;61.33;99705.09;7736430;32;37642;-78
2022/07/15 07:00:31;;;;;;;3.33;2.12;;;;;;;21.45;60.31;99703.16;7746992;32;36990;-79
2022/07/15 07:04:47;;;;;;;4.45;2.10;;;;;;;21.68;59.02;99720.97;7736246;32;39289;-79
2022/07/15 07:09:03;;;;;;;2.40;2.12;;;;;;;21.86;58.42;99737.38;7737928;32;39913;-79
2022/07/15 07:13:19;;;;;;;3.85;2.20;;;;;;;21.67;59.08;99749.87;7750748;32;39200;-77
2022/07/15 07:17:36;;;;;;;2.62;1.98;;;;;;;22.21;57.89;99756.25;7738771;32;37602;-79
2022/07/15 07:21:52;;;;;;;3.12;2.25;;;;;;;21.89;58.06;99769.97;7729561;32;39351;-78
2022/07/15 07:26:10;;;;;;;2.15;1.95;;;;;;;22.27;56.84;99772.34;7737434;32;40742;-78
2022/07/15 07:30:26;;;;;;;3.03;2.22;;;;;;;22.38;57.26;99783.78;7738277;32;37878;-78
2022/07/15 07:34:42;;;;;;;3.35;2.17;;;;;;;22.40;56.40;99788.97;7736486;32;37798;-78
2022/07/15 07:38:58;;;;;;;4.40;2.15;;;;;;;22.18;56.15;99793.03;7734167;32;39774;-78
2022/07/15 07:43:17;;;;;;;2.05;1.85;;;;;;;22.66;55.46;99785.75;7735233;32;39703;-78
2022/07/15 07:47:39;;;;;;;3.80;2.35;;;;;;;22.57;54.11;99785.13;7738498;32;36997;-78
2022/07/15 07:51:55;;;;;;;3.63;2.03;;;;;;;22.72;54.27;99795.47;7739104;32;36872;-78
2022/07/15 07:56:12;;;;;;;3.28;1.80;;;;;;;22.64;53.99;99785.31;7739460;32;39443;-78
2022/07/15 08:00:29;;;;;;;5.70;2.20;;;;;;;23.06;52.16;99793.28;7739279;32;40734;-78
2022/07/15 08:04:45;;;;;;;3.17;2.03;;;;;;;23.29;50.25;99789.88;7738846;32;37874;-78
2022/07/15 08:09:01;;;;;;;5.90;2.10;;;;;;;23.67;48.58;99780.09;7739267;32;37787;-78
2022/07/15 08:13:18;;;;;;;3.45;2.00;;;;;;;23.95;47.09;99794.72;7739175;32;39259;-79
2022/07/15 08:17:34;;;;;;;8.18;2.12;;;;;;;24.17;46.24;99789.63;7739188;32;40703;-79
2022/07/15 08:21:50;;;;;;;6.97;2.47;;;;;;;24.56;44.97;99798.06;7738389;32;38704;-79
2022/07/15 08:26:08;;;;;;;2.75;2.25;;;;;;;24.74;44.70;99796.44;7738958;32;37832;-77
2022/07/15 08:30:26;;;;;;;3.92;2.30;;;;;;;24.82;42.58;99791.00;7738977;32;39463;-77
2022/07/15 08:34:42;;;;;;;3.97;2.10;;;;;;;24.93;42.69;99794.81;7738930;32;40835;-78
2022/07/15 08:38:58;;;;;;;9.30;2.47;;;;;;;24.67;42.70;99792.72;7738920;32;39574;-78
2022/07/15 08:43:14;;;;;;;4.25;2.05;;;;;;;24.98;42.49;99771.41;7738838;32;37054;-79
2022/07/15 08:47:31;;;;;;;3.97;1.98;;;;;;;24.94;41.57;99762.97;7738893;32;40126;-77
2022/07/15 08:52:08;;;;;;;5.20;2.33;;;;;;;25.35;41.07;99771.69;7747766;32;40273;-79
2022/07/15 08:56:24;;;;;;;5.07;1.80;;;;;;;25.61;39.78;99770.13;7738768;32;38631;-78
2022/07/15 09:00:40;;;;;;;5.35;1.83;;;;;;;25.88;37.31;99784.91;7750255;32;37249;-79
2022/07/15 09:05:18;;;;;;;5.97;1.92;;;;;;;26.17;36.51;99783.38;7738588;32;39360;-79
2022/07/15 09:09:36;;;;;;;2.78;1.87;;;;;;;25.94;35.71;99799.34;7738597;32;39800;-78
2022/07/15 09:13:52;;;;;;;4.53;1.90;;;;;;;26.14;32.92;99803.69;7738516;32;38088;-78
2022/07/15 09:18:14;;;;;;;6.03;1.80;;;;;;;26.21;33.30;99806.56;7738485;32;37863;-77
2022/07/15 09:22:33;;;;;;;5.83;2.10;;;;;;;26.96;33.32;99803.16;7738297;32;39462;-76
2022/07/15 09:26:49;;;;;;;2.85;1.73;;;;;;;26.98;31.81;99801.56;7738336;32;38907;-78
2022/07/15 09:40:15;;;;;;;3.28;1.62;;;;;;;28.45;28.83;99807.56;7738199;32;40205;-78
2022/07/15 09:44:33;;;;;;;4.15;2.00;;;;;;;28.67;27.92;99818.13;7738097;32;40674;-78
2022/07/15 09:48:51;;;;;;;3.95;1.60;;;;;;;29.04;27.37;99801.00;7738215;32;37933;-76
2022/07/15 09:53:12;;;;;;;3.22;1.62;;;;;;;28.74;23.86;99807.72;7738182;32;36298;-78
2022/07/15 09:57:29;;;;;;;4.40;1.67;;;;;;;29.03;23.33;99794.59;7738117;32;38358;-77
2022/07/15 10:01:47;;;;;;;5.00;1.52;;;;;;;29.45;22.39;99800.69;7737905;32;39945;-77
2022/07/15 10:06:05;;;;;;;4.47;1.55;;;;;;;29.58;20.60;99798.31;7737801;32;38529;-78
2022/07/15 10:10:21;;;;;;;4.20;1.60;;;;;;;29.05;18.21;99799.81;7737886;32;37130;-78
2022/07/15 10:14:46;;;;;;;1.75;1.37;;;;;;;28.95;20.49;99801.38;7737777;32;40010;-77
2022/07/15 10:19:11;;;;;;;3.53;1.58;;;;;;;28.72;21.73;99792.47;7737619;32;40003;-78
2022/07/15 10:23:49;;;;;;;2.92;1.60;;;;;;;29.15;20.03;99795.44;7737383;32;38535;-78
2022/07/15 10:28:15;;;;;;;5.53;1.55;;;;;;;28.54;21.71;99781.19;7748505;32;38009;-78
2022/07/15 10:33:03;;;;;;;4.00;1.75;;;;;;;28.50;22.84;99772.75;7748222;32;39317;-77
2022/07/15 10:37:20;;;;;;;3.60;1.50;;;;;;;29.16;21.94;99772.56;7737341;32;40967;-77
2022/07/15 10:41:58;;;;;;;3.53;1.55;;;;;;;29.74;20.91;99745.31;7747712;32;38544;-77
2022/07/15 10:46:17;;;;;;;2.78;1.40;;;;;;;29.87;20.66;99753.34;7737062;32;37897;-76
2022/07/15 10:50:40;;;;;;;4.72;1.37;;;;;;;30.67;18.27;99754.72;7737012;32;39130;-78
2022/07/15 10:54:56;;;;;;;3.97;1.60;;;;;;;31.30;17.56;99746.25;7736915;32;39763;-77
2022/07/15 10:59:24;;;;;;;6.95;2.15;;;;;;;30.25;17.96;99746.03;7736738;32;37639;-78
2022/07/15 11:04:13;;;;;;;4.55;1.67;;;;;;;31.35;16.74;99759.09;7736651;32;36812;-78
2022/07/15 11:08:32;;;;;;;6.03;1.77;;;;;;;31.14;16.75;99754.44;7746194;32;39291;-78
2022/07/15 11:12:51;;;;;;;1.73;1.20;;;;;;;30.69;16.05;99758.69;7736450;32;40063;-78
2022/07/15 11:17:07;;;;;;;2.42;1.62;;;;;;;31.21;16.66;99751.56;7736161;32;37877;-77
2022/07/15 11:21:23;;;;;;;2.67;1.70;;;;;;;31.67;15.65;99744.78;7736168;32;36999;-77
2022/07/15 11:25:42;;;;;;;1.75;1.55;;;;;;;31.85;15.74;99747.41;7736067;32;39373;-77
2022/07/15 11:30:03;;;;;;;12.98;1.70;;;;;;;32.19;14.75;99755.94;7736037;32;40722;-78
2022/07/15 11:34:20;;;;;;;3.37;1.60;;;;;;;32.34;14.28;99745.28;7735819;32;37864;-77
2022/07/15 11:38:39;;;;;;;4.60;1.58;;;;;;;32.37;14.27;99744.44;7735854;32;37881;-78
2022/07/15 11:47:30;;;;;;;4.28;1.30;;;;;;;31.31;15.55;99752.72;7735602;32;40836;-79
2022/07/15 11:51:46;;;;;;;3.60;1.30;;;;;;;30.63;16.26;99765.16;7735316;32;37846;-78
2022/07/15 11:56:02;;;;;;;4.45;1.65;;;;;;;31.17;15.78;99764.87;7738997;32;37358;-78
2022/07/15 12:00:27;;;;;;;4.55;1.70;;;;;;;31.35;14.65;99753.47;7739557;32;39450;-79
2022/07/15 12:04:43;;;;;;;3.75;1.52;;;;;;;30.65;15.77;99763.56;7739257;32;40728;-78
2022/07/15 12:09:07;;;;;;;3.22;1.48;;;;;;;30.64;16.96;99772.41;7739245;32;39352;-77
2022/07/15 12:13:23;;;;;;;6.43;1.92;;;;;;;30.46;16.83;99761.22;7739311;32;37751;-79
2022/07/15 12:17:40;;;;;;;4.32;1.65;;;;;;;31.15;17.80;99756.03;7739271;32;40013;-78
2022/07/15 12:22:05;;;;;;;3.12;1.77;;;;;;;30.82;15.29;99761.88;7750717;32;40052;-77
2022/07/15 12:26:27;;;;;;;4.25;1.80;;;;;;;31.30;15.55;99765.97;7739000;32;37839;-78
2022/07/15 12:30:44;;;;;;;4.07;1.55;;;;;;;31.81;15.62;99764.34;7750383;32;37106;-78
2022/07/15 12:35:01;;;;;;;6.47;1.65;;;;;;;31.85;15.04;99757.87;7739071;32;39067;-78
2022/07/15 12:39:18;;;;;;;6.65;1.70;;;;;;;32.06;15.82;99749.22;7739256;32;40809;-78
2022/07/15 12:43:50;;;;;;;4.80;1.50;;;;;;;32.91;15.93;99746.56;7738855;32;38633;-78
2022/07/15 12:48:13;;;;;;;5.00;1.48;;;;;;;32.90;14.31;99750.59;7738856;32;37607;-78
2022/07/15 12:52:38;;;;;;;1.87;1.25;;;;;;;33.25;14.18;99748.47;7738800;32;39320;-78
2022/07/15 12:56:54;;;;;;;8.35;1.90;;;;;;;32.37;15.27;99760.56;7749809;32;40002;-79
2022/07/15 13:01:14;;;;;;;2.35;1.23;;;;;;;31.65;15.92;99758.50;7738727;32;38644;-77
2022/07/15 13:05:37;;;;;;;3.80;1.37;;;;;;;32.40;15.46;99762.53;7738027;32;37290;-77
2022/07/15 13:09:53;;;;;;;4.10;1.67;;;;;;;31.88;15.31;99762.69;7738841;32;39940;-78
2022/07/15 13:14:09;;;;;;;3.47;1.65;;;;;;;31.62;14.92;99759.31;7738714;32;39910;-78
2022/07/15 13:18:26;;;;;;;4.75;1.33;;;;;;;31.13;14.56;99758.47;7731098;32;237481;-78
2022/07/15 13:22:42;;;;;;;4.85;1.70;;;;;;;30.75;14.90;99766.72;7738707;32;37349;-77
2022/07/15 13:26:58;;;;;;;2.08;1.27;;;;;;;31.10;14.14;99765.75;7738338;32;39352;-77
2022/07/15 13:31:14;;;;;;;2.62;1.20;;;;;;;30.20;15.12;99762.50;7738191;32;39993;-78
2022/07/15 13:35:31;;;;;;;4.12;1.30;;;;;;;30.28;15.25;99772.50;7738245;32;37937;-77
2022/07/15 13:39:47;;;;;;;6.60;1.80;;;;;;;30.29;15.77;99780.53;7738297;32;36979;-77
2022/07/15 13:44:03;;;;;;;3.92;1.60;;;;;;;29.85;15.21;99772.63;7738301;32;39441;-77
2022/07/15 13:48:19;;;;;;;2.75;1.20;;;;;;;29.98;15.61;99776.62;7736607;32;39905;-78
2022/07/15 13:52:50;;;;;;;7.78;1.60;;;;;;;30.27;16.26;99774.53;7725670;32;37836;-75
2022/07/15 13:57:06;;;;;;;4.97;1.45;;;;;;;30.11;16.55;99779.78;7728861;32;37973;-79
2022/07/15 14:01:23;;;;;;;1.77;1.20;;;;;;;30.50;16.28;99788.13;7711119;32;39556;-78
2022/07/15 14:05:39;;;;;;;4.45;1.30;;;;;;;31.16;15.88;99768.91;7709985;32;39928;-78
2022/07/15 14:09:55;;;;;;;6.00;1.60;;;;;;;31.02;15.38;99767.00;7710574;32;39330;-77
2022/07/15 14:14:11;;;;;;;4.30;1.10;;;;;;;31.15;15.45;99778.56;7731986;32;37031;-78
2022/07/15 14:23:01;;;;;;;3.08;1.37;;;;;;;30.95;15.60;99787.53;7713962;32;39923;-78
2022/07/15 14:27:17;;;;;;;2.55;1.20;;;;;;;30.66;15.11;99772.78;7736237;32;37985;-76
2022/07/15 14:31:33;;;;;;;3.95;1.35;;;;;;;30.39;15.15;99769.69;7735311;32;38267;-76
2022/07/15 14:35:50;;;;;;;4.10;1.27;;;;;;;30.83;15.05;99780.34;7736412;32;39077;-77
2022/07/15 14:40:08;;;;;;;4.00;1.23;;;;;;;32.07;13.86;99764.94;7716588;32;40583;-78
2022/07/15 14:44:24;;;;;;;3.22;1.20;;;;;;;31.44;14.10;99771.50;7725626;32;38627;-76
2022/07/15 14:48:40;;;;;;;2.60;1.40;;;;;;;30.79;14.39;99779.56;7723630;32;38062;-77
2022/07/15 14:52:56;;;;;;;3.03;1.50;;;;;;;30.55;14.18;99774.88;7718305;32;39150;-75
2022/07/15 14:57:12;;;;;;;2.72;1.52;;;;;;;29.91;14.99;99783.03;7708834;32;40611;-76
2022/07/15 15:01:28;;;;;;;4.45;1.50;;;;;;;29.37;16.36;99793.47;7709211;32;37603;-76
2022/07/15 15:05:44;;;;;;;6.03;1.70;;;;;;;29.99;15.08;99783.03;7709155;32;37178;-77
2022/07/15 15:10:01;;;;;;;2.55;1.20;;;;;;;29.81;15.51;99788.69;7708613;32;39385;-75
2022/07/15 15:14:17;;;;;;;9.68;1.62;;;;;;;29.30;16.45;99794.25;7708983;32;40008;-76
2022/07/15 15:18:33;;;;;;;4.68;1.50;;;;;;;29.65;16.43;99775.00;7728572;32;38032;-76
2022/07/15 15:22:49;;;;;;;5.07;1.58;;;;;;;29.52;16.93;99789.47;7734570;32;36820;-76
2022/07/15 15:27:10;;;;;;;4.75;1.45;;;;;;;29.19;16.58;99799.84;7735207;32;39970;-75
2022/07/15 15:31:26;;;;;;;2.53;1.62;;;;;;;28.48;16.61;99801.19;7739582;32;39865;-76
2022/07/15 15:35:42;;;;;;;3.37;1.45;;;;;;;28.80;17.19;99794.13;7739591;32;38638;-76
2022/07/15 15:39:58;;;;;;;3.00;1.50;;;;;;;28.96;17.35;99793.75;7739895;32;37865;-77
2022/07/15 15:44:14;;;;;;;3.72;1.25;;;;;;;29.47;17.20;99798.28;7739554;32;39325;-76
2022/07/15 15:48:31;;;;;;;1.83;1.45;;;;;;;29.80;16.19;99803.94;7720300;32;40007;-75
2022/07/15 15:52:47;;;;;;;5.00;1.52;;;;;;;29.84;15.61;99808.34;7737756;32;38168;-75
2022/07/15 15:57:03;;;;;;;4.10;1.17;;;;;;;29.77;15.42;99803.53;7737623;32;36994;-71
2022/07/15 16:01:19;;;;;;;3.72;1.30;;;;;;;29.33;16.60;99812.31;7712124;32;38955;-77
2022/07/15 16:05:38;;;;;;;3.12;1.42;;;;;;;29.08;17.01;99804.63;7727731;32;40856;-77
2022/07/15 16:09:59;;;;;;;3.78;1.70;;;;;;;29.37;17.08;99810.31;7717395;32;37941;-75
2022/07/15 16:14:15;;;;;;;6.82;1.30;;;;;;;29.31;16.78;99814.72;7717592;32;35577;-76
2022/07/15 16:18:31;;;;;;;3.28;1.35;;;;;;;29.23;17.20;99815.91;7723922;32;40114;-77
2022/07/15 16:22:54;;;;;;;4.15;1.42;;;;;;;28.63;17.91;99816.13;7712772;32;39805;-77
2022/07/15 16:27:10;;;;;;;3.62;1.15;;;;;;;29.32;17.88;99814.34;7731986;32;39452;-78
2022/07/15 16:31:26;;;;;;;3.28;1.42;;;;;;;29.40;16.69;99820.75;7725615;32;37224;-78
2022/07/15 16:35:43;;;;;;;4.32;1.20;;;;;;;29.46;16.86;99816.34;7711855;32;39446;-76
2022/07/15 16:39:59;;;;;;;6.00;1.33;;;;;;;29.20;16.97;99818.31;7736023;32;40169;-77
2022/07/15 16:44:15;;;;;;;3.22;1.25;;;;;;;29.14;17.15;99814.25;7739045;32;38315;-77
2022/07/15 16:48:31;;;;;;;2.55;1.20;;;;;;;28.86;17.09;99805.78;7712317;32;37892;-77
2022/07/15 16:52:47;;;;;;;4.12;1.45;;;;;;;28.66;17.58;99817.31;7738028;32;40268;-76
2022/07/15 16:57:05;;;;;;;2.47;1.25;;;;;;;28.47;18.09;99815.59;7738333;32;39889;-78
2022/07/15 17:01:23;;;;;;;6.82;1.17;;;;;;;28.05;17.98;99823.34;7733166;32;37836;-77
2022/07/15 17:05:39;;;;;;;5.97;1.25;;;;;;;27.64;18.47;99817.81;7720338;32;37779;-77
2022/07/15 17:09:59;;;;;;;4.87;1.37;;;;;;;27.64;18.60;99831.81;7723236;32;39415;-77
2022/07/15 17:14:16;;;;;;;1.45;1.10;;;;;;;27.51;18.88;99830.50;7727149;32;38932;-78
2022/07/15 17:18:32;;;;;;;8.68;1.25;;;;;;;26.91;19.43;99835.06;7732905;32;37875;-78
2022/07/15 17:22:48;;;;;;;2.05;1.10;;;;;;;27.06;18.96;99835.22;7737378;32;37084;-77
2022/07/15 17:27:04;;;;;;;3.60;1.35;;;;;;;26.78;19.85;99833.69;7737793;32;39395;-75
2022/07/15 17:31:20;;;;;;;3.30;1.45;;;;;;;26.82;19.51;99850.50;7736537;32;40791;-77
2022/07/15 17:35:37;;;;;;;2.40;1.10;;;;;;;26.87;19.39;99844.59;7717485;32;37926;-77
2022/07/15 17:39:53;;;;;;;1.65;1.10;;;;;;;26.73;19.83;99843.25;7713322;32;37216;-76
2022/07/15 17:44:09;;;;;;;5.22;1.10;;;;;;;27.10;19.66;99847.25;7715963;32;40124;-76
2022/07/15 17:48:25;;;;;;;1.58;0.90;;;;;;;26.98;19.78;99851.91;7737637;32;40801;-75
2022/07/15 17:52:42;;;;;;;2.67;1.20;;;;;;;26.88;20.07;99846.22;7736294;32;38898;-77
2022/07/15 17:56:58;;;;;;;2.37;1.30;;;;;;;26.61;20.14;99855.44;7737680;32;37700;-77
2022/07/15 18:01:14;;;;;;;0.95;0.80;;;;;;;26.41;20.54;99856.75;7734779;32;40063;-76
2022/07/15 18:05:31;;;;;;;6.68;1.37;;;;;;;25.92;21.24;99854.78;7724820;32;40869;-73
2022/07/15 18:09:47;;;;;;;5.65;1.08;;;;;;;25.95;21.30;99862.44;7736572;32;38873;-75
2022/07/15 18:14:03;;;;;;;3.22;1.12;;;;;;;26.20;21.29;99860.84;7737504;32;37213;-75
2022/07/15 18:18:19;;;;;;;2.33;1.20;;;;;;;25.84;22.33;99874.22;7725674;32;40145;-75
2022/07/15 18:22:35;;;;;;;5.62;1.05;;;;;;;25.95;21.89;99866.03;7726332;32;39943;-75
2022/07/15 18:26:51;;;;;;;1.98;1.05;;;;;;;25.76;22.32;99872.47;7724859;32;38595;-75
2022/07/15 18:31:07;;;;;;;4.07;1.12;;;;;;;25.72;22.33;99880.00;7737076;32;37877;-76
2022/07/15 18:35:23;;;;;;;2.08;1.12;;;;;;;25.40;23.20;99885.00;7724433;32;40839;-75
2022/07/15 18:39:39;;;;;;;3.17;1.20;;;;;;;25.27;23.25;99887.94;7737190;32;40026;-74
2022/07/15 18:43:56;;;;;;;6.53;1.52;;;;;;;24.89;23.69;99891.53;7737006;32;37989;-75
2022/07/15 18:48:12;;;;;;;2.80;0.85;;;;;;;24.91;24.36;99894.75;7724559;32;36846;-74
2022/07/15 18:52:28;;;;;;;5.15;1.20;;;;;;;24.88;24.27;99892.69;7709586;32;39306;-73
2022/07/15 18:56:44;;;;;;;5.03;1.40;;;;;;;24.78;23.87;99901.66;7709443;32;40061;-73
2022/07/15 19:01:00;;;;;;;2.10;1.20;;;;;;;24.64;24.47;99902.94;7709715;32;37864;-74
2022/07/15 19:05:16;;;;;;;8.10;1.58;;;;;;;24.42;24.09;99906.38;7712030;32;37185;-73
2022/07/15 19:09:32;;;;;;;2.08;0.98;;;;;;;24.50;24.38;99916.53;7713045;32;39463;-74
2022/07/15 19:13:49;;;;;;;2.75;1.20;;;;;;;24.43;24.37;99914.38;7712979;32;40190;-73
2022/07/15 19:18:05;;;;;;;5.62;1.65;;;;;;;23.98;25.08;99932.41;7733406;32;37924;-74
2022/07/15 19:22:21;;;;;;;3.60;2.08;;;;;;;24.24;24.69;99931.84;7739822;32;37804;-74
2022/07/15 19:26:37;;;;;;;9.20;2.40;;;;;;;24.04;25.18;99938.50;7739781;32;39357;-74
2022/07/15 19:30:55;;;;;;;4.05;1.60;;;;;;;23.91;25.61;99935.81;7739460;32;40884;-75
2022/07/15 19:35:12;;;;;;;2.33;1.45;;;;;;;23.78;25.58;99939.81;7739505;32;37914;-74
2022/07/15 19:39:28;;;;;;;3.25;1.48;;;;;;;23.72;26.23;99941.25;7713851;32;37855;-75
2022/07/15 19:43:44;;;;;;;2.70;1.30;;;;;;;23.48;26.76;99951.34;7712718;32;39341;-75
2022/07/15 19:48:00;;;;;;;1.10;1.00;;;;;;;23.29;26.42;99951.19;7714213;32;39857;-74
2022/07/15 19:52:17;;;;;;;4.90;1.20;;;;;;;23.20;26.96;99951.34;7739150;32;38061;-76
2022/07/15 19:56:33;;;;;;;6.53;1.50;;;;;;;23.00;27.02;99953.09;7737498;32;37022;-73
2022/07/15 20:00:50;;;;;;;3.47;1.20;;;;;;;22.92;27.74;99960.44;7739268;32;40636;-74
2022/07/15 20:05:07;;;;;;;12.23;1.45;;;;;;;22.72;28.02;99953.88;7725258;32;40673;-74
2022/07/15 20:09:23;;;;;;;1.98;1.35;;;;;;;22.71;27.74;99951.44;7738966;32;37774;-74
2022/07/15 20:13:40;;;;;;;2.80;1.42;;;;;;;22.62;27.84;99946.00;7734139;32;36794;-74
2022/07/15 20:17:57;;;;;;;4.20;1.30;;;;;;;22.02;29.27;99951.19;7712242;32;39162;-74
2022/07/15 20:22:13;;;;;;;2.85;1.42;;;;;;;22.24;28.86;99953.50;7712025;32;39885;-74
2022/07/15 20:26:29;;;;;;;4.03;1.58;;;;;;;22.30;28.99;99951.34;7734128;32;38672;-73
2022/07/15 20:30:45;;;;;;;2.22;1.20;;;;;;;22.13;29.19;99958.72;7738685;32;38031;-73
2022/07/15 20:35:01;;;;;;;1.52;1.05;;;;;;;22.16;29.10;99961.94;7737170;32;40138;-73
2022/07/15 20:39:17;;;;;;;1.40;1.10;;;;;;;21.97;30.20;99954.19;7711974;32;40804;-73